Terminal Aerodrome Forecast
Issued by NWS

Home | Current Version | Previous Version | Text Only | Print | Product List | Glossary On
Versions: 1 2 3 4 5 6 7 8 9 10 11 12 13 14 15 16
000
FTUS43 KDVN 301012 AAA
TAFBRL
TAF AMD
KBRL 301012Z 3010/0106 26005KT P6SM SCT250
     FM301100 26011KT P6SM OVC025
     FM301600 25010KT P6SM OVC018
     FM302100 25012KT P6SM OVC020
     FM010100 26010KT 6SM BR BKN020=

USA.gov is the U.S. government's official web portal to all federal, state and local government web resources and services.